sensor_id;sensor_type;location;lat;lon;timestamp;temperature;humidity
4187;DHT22;2107;52.306;10.484;2024-02-23T00:01:31;8.90;99.90
4187;DHT22;2107;52.306;10.484;2024-02-23T00:03:59;9.00;99.90
4187;DHT22;2107;52.306;10.484;2024-02-23T00:06:28;9.00;99.90
4187;DHT22;2107;52.306;10.484;2024-02-23T00:08:55;8.90;99.90
4187;DHT22;2107;52.306;10.484;2024-02-23T00:11:21;8.90;99.90
4187;DHT22;2107;52.306;10.484;2024-02-23T00:13:48;8.80;99.90
4187;DHT22;2107;52.306;10.484;2024-02-23T00:16:15;8.80;99.90
4187;DHT22;2107;52.306;10.484;2024-02-23T00:18:42;8.90;99.90
4187;DHT22;2107;52.306;10.484;2024-02-23T00:21:10;8.90;99.90
4187;DHT22;2107;52.306;10.484;2024-02-23T00:23:37;8.90;99.90
4187;DHT22;2107;52.306;10.484;2024-02-23T00:26:04;8.80;99.90
4187;DHT22;2107;52.306;10.484;2024-02-23T00:28:31;9.00;99.90
4187;DHT22;2107;52.306;10.484;2024-02-23T00:30:57;8.80;99.90
4187;DHT22;2107;52.306;10.484;2024-02-23T00:33:24;9.00;99.90
4187;DHT22;2107;52.306;10.484;2024-02-23T00:35:51;8.90;99.90
4187;DHT22;2107;52.306;10.484;2024-02-23T00:38:19;8.80;99.90
4187;DHT22;2107;52.306;10.484;2024-02-23T00:40:47;8.80;99.90
4187;DHT22;2107;52.306;10.484;2024-02-23T00:43:13;8.60;99.90
4187;DHT22;2107;52.306;10.484;2024-02-23T00:45:40;8.70;99.90
4187;DHT22;2107;52.306;10.484;2024-02-23T00:48:07;8.50;99.90
4187;DHT22;2107;52.306;10.484;2024-02-23T00:50:34;8.60;99.90
4187;DHT22;2107;52.306;10.484;2024-02-23T00:53:01;8.60;99.90
4187;DHT22;2107;52.306;10.484;2024-02-23T00:55:30;8.60;99.90
4187;DHT22;2107;52.306;10.484;2024-02-23T00:57:56;8.60;99.90
4187;DHT22;2107;52.306;10.484;2024-02-23T01:00:24;8.70;99.90
4187;DHT22;2107;52.306;10.484;2024-02-23T01:02:51;8.80;99.90
4187;DHT22;2107;52.306;10.484;2024-02-23T01:05:18;8.80;99.90
4187;DHT22;2107;52.306;10.484;2024-02-23T01:07:45;8.80;99.90
4187;DHT22;2107;52.306;10.484;2024-02-23T01:10:12;8.90;99.90
4187;DHT22;2107;52.306;10.484;2024-02-23T01:12:40;8.90;99.90
4187;DHT22;2107;52.306;10.484;2024-02-23T01:15:07;8.90;99.90
4187;DHT22;2107;52.306;10.484;2024-02-23T01:17:34;9.00;99.90
4187;DHT22;2107;52.306;10.484;2024-02-23T01:20:01;9.00;99.90
4187;DHT22;2107;52.306;10.484;2024-02-23T01:22:28;9.10;99.90
4187;DHT22;2107;52.306;10.484;2024-02-23T01:24:55;9.10;99.90
4187;DHT22;2107;52.306;10.484;2024-02-23T01:27:22;9.00;99.90
4187;DHT22;2107;52.306;10.484;2024-02-23T01:29:50;8.90;99.90
4187;DHT22;2107;52.306;10.484;2024-02-23T01:32:17;8.90;99.90
4187;DHT22;2107;52.306;10.484;2024-02-23T01:34:43;9.10;99.90
4187;DHT22;2107;52.306;10.484;2024-02-23T01:37:10;8.90;99.90
4187;DHT22;2107;52.306;10.484;2024-02-23T01:39:37;8.90;99.90
4187;DHT22;2107;52.306;10.484;2024-02-23T01:42:04;8.80;99.90
4187;DHT22;2107;52.306;10.484;2024-02-23T01:44:31;8.80;99.90
4187;DHT22;2107;52.306;10.484;2024-02-23T01:47:00;8.80;99.90
4187;DHT22;2107;52.306;10.484;2024-02-23T01:49:27;8.70;99.90
4187;DHT22;2107;52.306;10.484;2024-02-23T01:51:57;8.60;99.90
4187;DHT22;2107;52.306;10.484;2024-02-23T01:54:24;8.60;99.90
4187;DHT22;2107;52.306;10.484;2024-02-23T01:56:51;8.50;99.90
4187;DHT22;2107;52.306;10.484;2024-02-23T01:59:19;8.40;99.90
4187;DHT22;2107;52.306;10.484;2024-02-23T02:01:46;8.20;99.90
4187;DHT22;2107;52.306;10.484;2024-02-23T02:04:15;8.10;99.90
4187;DHT22;2107;52.306;10.484;2024-02-23T02:06:42;8.00;99.90
4187;DHT22;2107;52.306;10.484;2024-02-23T02:09:09;7.80;99.90
4187;DHT22;2107;52.306;10.484;2024-02-23T02:11:45;7.80;99.90
4187;DHT22;2107;52.306;10.484;2024-02-23T02:14:12;7.70;99.90
4187;DHT22;2107;52.306;10.484;2024-02-23T02:16:39;7.60;99.90
4187;DHT22;2107;52.306;10.484;2024-02-23T02:19:06;7.60;99.90
4187;DHT22;2107;52.306;10.484;2024-02-23T02:21:34;7.60;99.90
4187;DHT22;2107;52.306;10.484;2024-02-23T02:24:01;7.50;99.90
4187;DHT22;2107;52.306;10.484;2024-02-23T02:26:28;7.50;99.90
4187;DHT22;2107;52.306;10.484;2024-02-23T02:28:55;7.50;99.90
4187;DHT22;2107;52.306;10.484;2024-02-23T02:31:22;7.40;99.90
4187;DHT22;2107;52.306;10.484;2024-02-23T02:33:49;7.10;99.90
4187;DHT22;2107;52.306;10.484;2024-02-23T02:36:15;6.70;99.90
4187;DHT22;2107;52.306;10.484;2024-02-23T02:38:44;6.50;99.90
4187;DHT22;2107;52.306;10.484;2024-02-23T02:41:11;6.40;99.90
4187;DHT22;2107;52.306;10.484;2024-02-23T02:43:37;6.30;99.90
4187;DHT22;2107;52.306;10.484;2024-02-23T02:46:04;6.30;99.90
4187;DHT22;2107;52.306;10.484;2024-02-23T02:48:31;6.20;99.90
4187;DHT22;2107;52.306;10.484;2024-02-23T02:50:58;6.20;99.90
4187;DHT22;2107;52.306;10.484;2024-02-23T02:53:25;6.20;99.90
4187;DHT22;2107;52.306;10.484;2024-02-23T02:55:53;6.30;99.90
4187;DHT22;2107;52.306;10.484;2024-02-23T02:58:20;6.40;99.90
4187;DHT22;2107;52.306;10.484;2024-02-23T03:00:46;6.40;99.90
4187;DHT22;2107;52.306;10.484;2024-02-23T03:03:13;6.40;99.90
4187;DHT22;2107;52.306;10.484;2024-02-23T03:05:40;6.30;99.90
4187;DHT22;2107;52.306;10.484;2024-02-23T03:08:07;6.30;99.90
4187;DHT22;2107;52.306;10.484;2024-02-23T03:10:34;6.30;99.90
4187;DHT22;2107;52.306;10.484;2024-02-23T03:13:02;6.20;99.90
4187;DHT22;2107;52.306;10.484;2024-02-23T03:15:29;5.90;99.90
4187;DHT22;2107;52.306;10.484;2024-02-23T03:17:56;5.70;99.90
4187;DHT22;2107;52.306;10.484;2024-02-23T03:20:22;5.60;99.90
4187;DHT22;2107;52.306;10.484;2024-02-23T03:22:49;5.60;99.90
4187;DHT22;2107;52.306;10.484;2024-02-23T03:25:16;5.60;99.90
4187;DHT22;2107;52.306;10.484;2024-02-23T03:27:43;5.50;99.90
4187;DHT22;2107;52.306;10.484;2024-02-23T03:30:12;5.50;99.90
4187;DHT22;2107;52.306;10.484;2024-02-23T03:32:38;5.50;99.90
4187;DHT22;2107;52.306;10.484;2024-02-23T03:35:07;5.60;99.90
4187;DHT22;2107;52.306;10.484;2024-02-23T03:37:34;5.70;99.90
4187;DHT22;2107;52.306;10.484;2024-02-23T03:40:01;5.80;99.90
4187;DHT22;2107;52.306;10.484;2024-02-23T03:42:30;5.90;99.90
4187;DHT22;2107;52.306;10.484;2024-02-23T03:44:57;5.90;99.90
4187;DHT22;2107;52.306;10.484;2024-02-23T03:47:25;5.90;99.90
4187;DHT22;2107;52.306;10.484;2024-02-23T03:49:52;5.80;99.90
4187;DHT22;2107;52.306;10.484;2024-02-23T03:52:19;5.80;99.90
4187;DHT22;2107;52.306;10.484;2024-02-23T03:54:45;5.90;99.90
4187;DHT22;2107;52.306;10.484;2024-02-23T03:57:12;6.00;99.90
4187;DHT22;2107;52.306;10.484;2024-02-23T03:59:39;6.00;99.90
4187;DHT22;2107;52.306;10.484;2024-02-23T04:02:06;6.00;99.90
4187;DHT22;2107;52.306;10.484;2024-02-23T04:04:35;6.00;99.90
4187;DHT22;2107;52.306;10.484;2024-02-23T04:07:02;6.00;99.90
4187;DHT22;2107;52.306;10.484;2024-02-23T04:09:29;6.00;99.90
4187;DHT22;2107;52.306;10.484;2024-02-23T04:11:56;6.00;99.90
4187;DHT22;2107;52.306;10.484;2024-02-23T04:14:23;5.80;99.90
4187;DHT22;2107;52.306;10.484;2024-02-23T04:16:49;5.90;99.90
4187;DHT22;2107;52.306;10.484;2024-02-23T04:19:16;5.90;99.90
4187;DHT22;2107;52.306;10.484;2024-02-23T04:21:45;6.00;99.90
4187;DHT22;2107;52.306;10.484;2024-02-23T04:24:12;6.00;99.90
4187;DHT22;2107;52.306;10.484;2024-02-23T04:26:38;6.00;99.90
4187;DHT22;2107;52.306;10.484;2024-02-23T04:29:05;6.10;99.90
4187;DHT22;2107;52.306;10.484;2024-02-23T04:31:32;6.10;99.90
4187;DHT22;2107;52.306;10.484;2024-02-23T04:33:59;6.00;99.90
4187;DHT22;2107;52.306;10.484;2024-02-23T04:36:26;6.10;99.90
4187;DHT22;2107;52.306;10.484;2024-02-23T04:38:54;6.10;99.90
4187;DHT22;2107;52.306;10.484;2024-02-23T04:41:21;6.00;99.90
4187;DHT22;2107;52.306;10.484;2024-02-23T04:43:48;6.10;99.90
4187;DHT22;2107;52.306;10.484;2024-02-23T04:46:15;6.00;99.90
4187;DHT22;2107;52.306;10.484;2024-02-23T04:48:42;5.90;99.90
4187;DHT22;2107;52.306;10.484;2024-02-23T04:51:09;5.90;99.90
4187;DHT22;2107;52.306;10.484;2024-02-23T04:53:36;6.00;99.90
4187;DHT22;2107;52.306;10.484;2024-02-23T04:56:05;6.00;99.90
4187;DHT22;2107;52.306;10.484;2024-02-23T04:58:32;6.00;99.90
4187;DHT22;2107;52.306;10.484;2024-02-23T05:01:00;6.00;99.90
4187;DHT22;2107;52.306;10.484;2024-02-23T05:03:28;6.00;99.90
4187;DHT22;2107;52.306;10.484;2024-02-23T05:05:55;6.00;99.90
4187;DHT22;2107;52.306;10.484;2024-02-23T05:08:22;6.10;99.90
4187;DHT22;2107;52.306;10.484;2024-02-23T05:10:49;6.10;99.90
4187;DHT22;2107;52.306;10.484;2024-02-23T05:13:18;6.10;99.90
4187;DHT22;2107;52.306;10.484;2024-02-23T05:15:45;6.00;99.90
4187;DHT22;2107;52.306;10.484;2024-02-23T05:18:11;6.00;99.90
4187;DHT22;2107;52.306;10.484;2024-02-23T05:20:38;6.00;99.90
4187;DHT22;2107;52.306;10.484;2024-02-23T05:23:05;6.00;99.90
4187;DHT22;2107;52.306;10.484;2024-02-23T05:25:32;6.00;99.90
4187;DHT22;2107;52.306;10.484;2024-02-23T05:27:59;6.00;99.90
4187;DHT22;2107;52.306;10.484;2024-02-23T05:30:27;6.00;99.90
4187;DHT22;2107;52.306;10.484;2024-02-23T05:32:56;6.10;99.90
4187;DHT22;2107;52.306;10.484;2024-02-23T05:35:23;6.10;99.90
4187;DHT22;2107;52.306;10.484;2024-02-23T05:37:50;6.10;99.90
4187;DHT22;2107;52.306;10.484;2024-02-23T05:40:17;6.00;99.90
4187;DHT22;2107;52.306;10.484;2024-02-23T05:42:44;6.00;99.90
4187;DHT22;2107;52.306;10.484;2024-02-23T05:45:11;6.00;99.90
4187;DHT22;2107;52.306;10.484;2024-02-23T05:47:39;6.00;99.90
4187;DHT22;2107;52.306;10.484;2024-02-23T05:50:08;6.00;99.90
4187;DHT22;2107;52.306;10.484;2024-02-23T05:52:35;6.00;99.90
4187;DHT22;2107;52.306;10.484;2024-02-23T05:55:03;6.00;99.90
4187;DHT22;2107;52.306;10.484;2024-02-23T05:57:30;6.00;99.90
4187;DHT22;2107;52.306;10.484;2024-02-23T05:59:57;5.90;99.90
4187;DHT22;2107;52.306;10.484;2024-02-23T06:02:24;5.90;99.90
4187;DHT22;2107;52.306;10.484;2024-02-23T06:04:52;5.90;99.90
4187;DHT22;2107;52.306;10.484;2024-02-23T06:07:19;5.90;99.90
4187;DHT22;2107;52.306;10.484;2024-02-23T06:09:52;5.80;99.90
4187;DHT22;2107;52.306;10.484;2024-02-23T06:12:19;5.80;99.90
4187;DHT22;2107;52.306;10.484;2024-02-23T06:14:46;5.80;99.90
4187;DHT22;2107;52.306;10.484;2024-02-23T06:17:13;5.80;99.90
4187;DHT22;2107;52.306;10.484;2024-02-23T06:19:42;5.80;99.90
4187;DHT22;2107;52.306;10.484;2024-02-23T06:22:10;5.80;99.90
4187;DHT22;2107;52.306;10.484;2024-02-23T06:24:37;5.80;99.90
4187;DHT22;2107;52.306;10.484;2024-02-23T06:27:04;5.80;99.90
4187;DHT22;2107;52.306;10.484;2024-02-23T06:29:31;5.90;99.90
4187;DHT22;2107;52.306;10.484;2024-02-23T06:31:58;6.00;99.90
4187;DHT22;2107;52.306;10.484;2024-02-23T06:34:30;6.20;99.90
4187;DHT22;2107;52.306;10.484;2024-02-23T06:36:59;6.10;99.90
4187;DHT22;2107;52.306;10.484;2024-02-23T06:39:28;6.20;99.90
4187;DHT22;2107;52.306;10.484;2024-02-23T06:41:55;6.20;99.90
4187;DHT22;2107;52.306;10.484;2024-02-23T06:44:23;6.20;99.90
4187;DHT22;2107;52.306;10.484;2024-02-23T06:46:50;6.20;99.90
4187;DHT22;2107;52.306;10.484;2024-02-23T06:49:17;6.30;99.90
4187;DHT22;2107;52.306;10.484;2024-02-23T06:51:43;6.30;99.90
4187;DHT22;2107;52.306;10.484;2024-02-23T06:54:10;6.30;99.90
4187;DHT22;2107;52.306;10.484;2024-02-23T06:56:39;6.20;99.90
4187;DHT22;2107;52.306;10.484;2024-02-23T06:59:06;6.30;99.90
4187;DHT22;2107;52.306;10.484;2024-02-23T07:01:34;6.30;99.90
4187;DHT22;2107;52.306;10.484;2024-02-23T07:04:03;6.30;99.90
4187;DHT22;2107;52.306;10.484;2024-02-23T07:06:30;6.30;99.90
4187;DHT22;2107;52.306;10.484;2024-02-23T07:08:57;6.30;99.90
4187;DHT22;2107;52.306;10.484;2024-02-23T07:11:24;6.40;99.90
4187;DHT22;2107;52.306;10.484;2024-02-23T07:13:52;6.40;99.90
4187;DHT22;2107;52.306;10.484;2024-02-23T07:16:20;6.40;99.90
4187;DHT22;2107;52.306;10.484;2024-02-23T07:18:46;6.40;99.90
4187;DHT22;2107;52.306;10.484;2024-02-23T07:21:13;6.20;99.90
4187;DHT22;2107;52.306;10.484;2024-02-23T07:23:43;6.30;99.90
4187;DHT22;2107;52.306;10.484;2024-02-23T07:26:10;6.30;99.90
4187;DHT22;2107;52.306;10.484;2024-02-23T07:28:37;6.30;99.90
4187;DHT22;2107;52.306;10.484;2024-02-23T07:31:05;6.30;99.90
4187;DHT22;2107;52.306;10.484;2024-02-23T07:33:32;6.30;99.90
4187;DHT22;2107;52.306;10.484;2024-02-23T07:35:59;6.30;99.90
4187;DHT22;2107;52.306;10.484;2024-02-23T07:38:26;6.30;99.90
4187;DHT22;2107;52.306;10.484;2024-02-23T07:40:53;6.30;99.90
4187;DHT22;2107;52.306;10.484;2024-02-23T07:43:20;6.40;99.90
4187;DHT22;2107;52.306;10.484;2024-02-23T07:45:50;6.40;99.90
4187;DHT22;2107;52.306;10.484;2024-02-23T07:48:19;6.50;99.90
4187;DHT22;2107;52.306;10.484;2024-02-23T07:50:45;6.50;99.90
4187;DHT22;2107;52.306;10.484;2024-02-23T07:53:12;6.50;99.90
4187;DHT22;2107;52.306;10.484;2024-02-23T07:55:39;6.50;99.90
4187;DHT22;2107;52.306;10.484;2024-02-23T07:58:06;6.50;99.90
4187;DHT22;2107;52.306;10.484;2024-02-23T08:00:33;6.70;99.90
4187;DHT22;2107;52.306;10.484;2024-02-23T08:03:03;6.60;99.90
4187;DHT22;2107;52.306;10.484;2024-02-23T08:05:32;6.60;99.90
4187;DHT22;2107;52.306;10.484;2024-02-23T08:07:58;6.70;99.90
4187;DHT22;2107;52.306;10.484;2024-02-23T08:10:31;7.00;99.90
4187;DHT22;2107;52.306;10.484;2024-02-23T08:12:58;7.10;99.90
4187;DHT22;2107;52.306;10.484;2024-02-23T08:15:26;7.50;99.90
4187;DHT22;2107;52.306;10.484;2024-02-23T08:17:52;7.40;99.90
4187;DHT22;2107;52.306;10.484;2024-02-23T08:20:19;7.40;99.90
4187;DHT22;2107;52.306;10.484;2024-02-23T08:22:48;7.30;99.90
4187;DHT22;2107;52.306;10.484;2024-02-23T08:25:15;7.10;99.90
4187;DHT22;2107;52.306;10.484;2024-02-23T08:27:42;7.00;99.90
4187;DHT22;2107;52.306;10.484;2024-02-23T08:30:09;6.90;99.90
4187;DHT22;2107;52.306;10.484;2024-02-23T08:32:37;6.90;99.90
4187;DHT22;2107;52.306;10.484;2024-02-23T08:35:04;7.00;99.90
4187;DHT22;2107;52.306;10.484;2024-02-23T08:37:31;7.00;99.90
4187;DHT22;2107;52.306;10.484;2024-02-23T08:40:00;7.10;99.90
4187;DHT22;2107;52.306;10.484;2024-02-23T08:42:27;7.30;99.90
4187;DHT22;2107;52.306;10.484;2024-02-23T08:44:54;7.40;99.90
4187;DHT22;2107;52.306;10.484;2024-02-23T08:47:21;7.50;99.90
4187;DHT22;2107;52.306;10.484;2024-02-23T08:49:47;7.60;99.90
4187;DHT22;2107;52.306;10.484;2024-02-23T08:52:14;7.60;99.90
4187;DHT22;2107;52.306;10.484;2024-02-23T08:54:41;7.90;99.90
4187;DHT22;2107;52.306;10.484;2024-02-23T08:57:09;7.90;99.90
4187;DHT22;2107;52.306;10.484;2024-02-23T08:59:36;7.90;99.90
4187;DHT22;2107;52.306;10.484;2024-02-23T09:02:03;8.00;99.90
4187;DHT22;2107;52.306;10.484;2024-02-23T09:04:30;8.30;99.90
4187;DHT22;2107;52.306;10.484;2024-02-23T09:06:57;8.30;99.90
4187;DHT22;2107;52.306;10.484;2024-02-23T09:09:24;8.40;99.90
4187;DHT22;2107;52.306;10.484;2024-02-23T09:11:51;8.30;99.90
4187;DHT22;2107;52.306;10.484;2024-02-23T09:14:19;8.20;99.90
4187;DHT22;2107;52.306;10.484;2024-02-23T09:16:46;8.00;99.90
4187;DHT22;2107;52.306;10.484;2024-02-23T09:19:17;8.10;99.90
4187;DHT22;2107;52.306;10.484;2024-02-23T09:21:44;8.20;99.90
4187;DHT22;2107;52.306;10.484;2024-02-23T09:24:11;8.40;99.90
4187;DHT22;2107;52.306;10.484;2024-02-23T09:26:38;8.40;99.90
4187;DHT22;2107;52.306;10.484;2024-02-23T09:29:05;8.40;99.90
4187;DHT22;2107;52.306;10.484;2024-02-23T09:31:33;8.50;99.90
4187;DHT22;2107;52.306;10.484;2024-02-23T09:34:00;8.70;99.90
4187;DHT22;2107;52.306;10.484;2024-02-23T09:36:28;8.90;99.90
4187;DHT22;2107;52.306;10.484;2024-02-23T09:38:56;8.90;99.90
4187;DHT22;2107;52.306;10.484;2024-02-23T09:41:23;8.90;99.90
4187;DHT22;2107;52.306;10.484;2024-02-23T09:43:50;9.10;99.90
4187;DHT22;2107;52.306;10.484;2024-02-23T09:46:18;8.70;99.90
4187;DHT22;2107;52.306;10.484;2024-02-23T09:48:48;9.00;99.90
4187;DHT22;2107;52.306;10.484;2024-02-23T09:51:16;9.00;99.90
4187;DHT22;2107;52.306;10.484;2024-02-23T09:53:43;9.00;99.90
4187;DHT22;2107;52.306;10.484;2024-02-23T09:56:10;9.30;99.90
4187;DHT22;2107;52.306;10.484;2024-02-23T09:58:39;9.70;99.90
4187;DHT22;2107;52.306;10.484;2024-02-23T10:01:06;9.50;99.90
4187;DHT22;2107;52.306;10.484;2024-02-23T10:03:32;9.30;99.90
4187;DHT22;2107;52.306;10.484;2024-02-23T10:06:01;9.30;99.90
4187;DHT22;2107;52.306;10.484;2024-02-23T10:08:28;9.40;99.90
4187;DHT22;2107;52.306;10.484;2024-02-23T10:10:55;9.20;99.90
4187;DHT22;2107;52.306;10.484;2024-02-23T10:13:22;8.70;99.90
4187;DHT22;2107;52.306;10.484;2024-02-23T10:15:50;8.70;99.90
4187;DHT22;2107;52.306;10.484;2024-02-23T10:18:17;8.40;99.90
4187;DHT22;2107;52.306;10.484;2024-02-23T10:20:43;8.40;99.90
4187;DHT22;2107;52.306;10.484;2024-02-23T10:23:12;8.60;99.90
4187;DHT22;2107;52.306;10.484;2024-02-23T10:25:39;8.60;99.90
4187;DHT22;2107;52.306;10.484;2024-02-23T10:28:06;8.90;99.90
4187;DHT22;2107;52.306;10.484;2024-02-23T10:30:36;9.30;99.90
4187;DHT22;2107;52.306;10.484;2024-02-23T10:33:05;9.60;99.90
4187;DHT22;2107;52.306;10.484;2024-02-23T10:35:32;9.80;99.90
4187;DHT22;2107;52.306;10.484;2024-02-23T10:38:01;9.50;99.90
4187;DHT22;2107;52.306;10.484;2024-02-23T10:40:32;9.80;99.90
4187;DHT22;2107;52.306;10.484;2024-02-23T10:43:03;10.00;99.90
4187;DHT22;2107;52.306;10.484;2024-02-23T10:45:33;9.60;99.90
4187;DHT22;2107;52.306;10.484;2024-02-23T10:48:02;10.00;99.90
4187;DHT22;2107;52.306;10.484;2024-02-23T10:50:29;10.20;99.90
4187;DHT22;2107;52.306;10.484;2024-02-23T10:52:59;10.50;99.90
4187;DHT22;2107;52.306;10.484;2024-02-23T10:55:27;10.40;99.90
4187;DHT22;2107;52.306;10.484;2024-02-23T10:57:56;10.60;99.90
4187;DHT22;2107;52.306;10.484;2024-02-23T11:00:25;10.80;99.90
4187;DHT22;2107;52.306;10.484;2024-02-23T11:02:53;11.20;99.90
4187;DHT22;2107;52.306;10.484;2024-02-23T11:05:23;11.40;99.90
4187;DHT22;2107;52.306;10.484;2024-02-23T11:07:50;10.50;99.80
4187;DHT22;2107;52.306;10.484;2024-02-23T11:10:17;11.00;99.90
4187;DHT22;2107;52.306;10.484;2024-02-23T11:12:58;10.80;99.80
4187;DHT22;2107;52.306;10.484;2024-02-23T11:15:26;10.70;99.50
4187;DHT22;2107;52.306;10.484;2024-02-23T11:17:54;10.50;99.90
4187;DHT22;2107;52.306;10.484;2024-02-23T11:20:21;10.70;99.90
4187;DHT22;2107;52.306;10.484;2024-02-23T11:22:52;11.10;99.90
4187;DHT22;2107;52.306;10.484;2024-02-23T11:25:20;10.90;99.40
4187;DHT22;2107;52.306;10.484;2024-02-23T11:27:49;11.40;99.10
4187;DHT22;2107;52.306;10.484;2024-02-23T11:30:18;11.40;98.70
4187;DHT22;2107;52.306;10.484;2024-02-23T11:32:46;12.00;99.20
4187;DHT22;2107;52.306;10.484;2024-02-23T11:35:15;12.10;97.20
4187;DHT22;2107;52.306;10.484;2024-02-23T11:37:49;12.40;96.30
4187;DHT22;2107;52.306;10.484;2024-02-23T11:40:22;11.80;97.00
4187;DHT22;2107;52.306;10.484;2024-02-23T11:42:51;11.30;96.60
4187;DHT22;2107;52.306;10.484;2024-02-23T11:45:19;10.60;97.00
4187;DHT22;2107;52.306;10.484;2024-02-23T11:47:46;10.70;98.00
4187;DHT22;2107;52.306;10.484;2024-02-23T11:50:13;11.10;98.10
4187;DHT22;2107;52.306;10.484;2024-02-23T11:52:41;11.10;97.80
4187;DHT22;2107;52.306;10.484;2024-02-23T11:55:08;11.00;97.60
4187;DHT22;2107;52.306;10.484;2024-02-23T11:57:35;10.70;98.00
4187;DHT22;2107;52.306;10.484;2024-02-23T12:00:04;11.00;96.60
4187;DHT22;2107;52.306;10.484;2024-02-23T12:02:34;10.80;96.20
4187;DHT22;2107;52.306;10.484;2024-02-23T12:05:01;11.00;96.70
4187;DHT22;2107;52.306;10.484;2024-02-23T12:07:29;10.80;96.10
4187;DHT22;2107;52.306;10.484;2024-02-23T12:09:57;10.80;95.50
4187;DHT22;2107;52.306;10.484;2024-02-23T12:12:24;10.40;95.70
4187;DHT22;2107;52.306;10.484;2024-02-23T12:14:52;10.00;95.70
4187;DHT22;2107;52.306;10.484;2024-02-23T12:17:22;10.00;96.20
4187;DHT22;2107;52.306;10.484;2024-02-23T12:19:51;9.80;96.70
4187;DHT22;2107;52.306;10.484;2024-02-23T12:22:24;9.70;97.50
4187;DHT22;2107;52.306;10.484;2024-02-23T12:24:51;9.70;96.80
4187;DHT22;2107;52.306;10.484;2024-02-23T12:27:18;9.80;96.80
4187;DHT22;2107;52.306;10.484;2024-02-23T12:29:51;10.20;97.70
4187;DHT22;2107;52.306;10.484;2024-02-23T12:32:20;10.00;97.00
4187;DHT22;2107;52.306;10.484;2024-02-23T12:34:47;9.80;98.30
4187;DHT22;2107;52.306;10.484;2024-02-23T12:37:16;9.60;97.50
4187;DHT22;2107;52.306;10.484;2024-02-23T12:39:43;9.50;97.90
4187;DHT22;2107;52.306;10.484;2024-02-23T12:42:10;9.60;99.40
4187;DHT22;2107;52.306;10.484;2024-02-23T12:44:37;9.90;99.10
4187;DHT22;2107;52.306;10.484;2024-02-23T12:47:04;9.80;99.30
4187;DHT22;2107;52.306;10.484;2024-02-23T12:49:31;10.10;98.00
4187;DHT22;2107;52.306;10.484;2024-02-23T12:52:00;10.30;96.90
4187;DHT22;2107;52.306;10.484;2024-02-23T12:54:31;10.20;96.30
4187;DHT22;2107;52.306;10.484;2024-02-23T12:56:58;9.70;97.20
4187;DHT22;2107;52.306;10.484;2024-02-23T12:59:25;10.00;97.20
4187;DHT22;2107;52.306;10.484;2024-02-23T13:01:52;9.80;97.30
4187;DHT22;2107;52.306;10.484;2024-02-23T13:04:19;10.10;96.90
4187;DHT22;2107;52.306;10.484;2024-02-23T13:06:46;10.30;98.10
4187;DHT22;2107;52.306;10.484;2024-02-23T13:09:13;10.30;97.10
4187;DHT22;2107;52.306;10.484;2024-02-23T13:11:42;10.10;97.10
4187;DHT22;2107;52.306;10.484;2024-02-23T13:14:13;10.20;96.80
4187;DHT22;2107;52.306;10.484;2024-02-23T13:16:41;10.20;96.30
4187;DHT22;2107;52.306;10.484;2024-02-23T13:19:10;10.50;96.00
4187;DHT22;2107;52.306;10.484;2024-02-23T13:21:37;10.60;95.80
4187;DHT22;2107;52.306;10.484;2024-02-23T13:24:05;10.60;96.50
4187;DHT22;2107;52.306;10.484;2024-02-23T13:26:32;10.20;95.80
4187;DHT22;2107;52.306;10.484;2024-02-23T13:29:01;10.40;96.30
4187;DHT22;2107;52.306;10.484;2024-02-23T13:31:28;10.30;96.70
4187;DHT22;2107;52.306;10.484;2024-02-23T13:33:54;10.40;96.60
4187;DHT22;2107;52.306;10.484;2024-02-23T13:36:21;10.00;96.00
4187;DHT22;2107;52.306;10.484;2024-02-23T13:38:49;9.80;96.50
4187;DHT22;2107;52.306;10.484;2024-02-23T13:41:16;9.80;96.70
4187;DHT22;2107;52.306;10.484;2024-02-23T13:43:44;9.70;97.10
4187;DHT22;2107;52.306;10.484;2024-02-23T13:46:15;9.70;97.70
4187;DHT22;2107;52.306;10.484;2024-02-23T13:48:42;9.60;97.30
4187;DHT22;2107;52.306;10.484;2024-02-23T13:51:09;9.40;97.20
4187;DHT22;2107;52.306;10.484;2024-02-23T13:53:37;9.30;97.10
4187;DHT22;2107;52.306;10.484;2024-02-23T13:56:05;9.20;97.70
4187;DHT22;2107;52.306;10.484;2024-02-23T13:58:32;9.20;97.40
4187;DHT22;2107;52.306;10.484;2024-02-23T14:00:59;9.30;98.20
4187;DHT22;2107;52.306;10.484;2024-02-23T14:03:30;9.20;97.90
4187;DHT22;2107;52.306;10.484;2024-02-23T14:05:57;9.30;98.10
4187;DHT22;2107;52.306;10.484;2024-02-23T14:08:27;9.10;97.10
4187;DHT22;2107;52.306;10.484;2024-02-23T14:10:54;9.10;97.50
4187;DHT22;2107;52.306;10.484;2024-02-23T14:13:25;9.20;98.10
4187;DHT22;2107;52.306;10.484;2024-02-23T14:15:52;9.30;98.30
4187;DHT22;2107;52.306;10.484;2024-02-23T14:18:20;9.20;97.40
4187;DHT22;2107;52.306;10.484;2024-02-23T14:20:52;9.20;97.70
4187;DHT22;2107;52.306;10.484;2024-02-23T14:23:19;9.30;98.30
4187;DHT22;2107;52.306;10.484;2024-02-23T14:25:45;9.40;97.40
4187;DHT22;2107;52.306;10.484;2024-02-23T14:28:12;9.50;97.90
4187;DHT22;2107;52.306;10.484;2024-02-23T14:30:40;9.60;98.60
4187;DHT22;2107;52.306;10.484;2024-02-23T14:33:08;9.30;97.00
4187;DHT22;2107;52.306;10.484;2024-02-23T14:35:35;9.30;97.50
4187;DHT22;2107;52.306;10.484;2024-02-23T14:38:04;9.30;97.40
4187;DHT22;2107;52.306;10.484;2024-02-23T14:40:31;9.30;97.60
4187;DHT22;2107;52.306;10.484;2024-02-23T14:43:00;9.30;97.70
4187;DHT22;2107;52.306;10.484;2024-02-23T14:45:30;9.30;97.90
4187;DHT22;2107;52.306;10.484;2024-02-23T14:47:57;9.20;98.10
4187;DHT22;2107;52.306;10.484;2024-02-23T14:50:24;9.30;98.70
4187;DHT22;2107;52.306;10.484;2024-02-23T14:52:52;9.20;98.10
4187;DHT22;2107;52.306;10.484;2024-02-23T14:55:23;9.20;98.10
4187;DHT22;2107;52.306;10.484;2024-02-23T14:57:50;9.20;98.00
4187;DHT22;2107;52.306;10.484;2024-02-23T15:00:18;9.30;98.10
4187;DHT22;2107;52.306;10.484;2024-02-23T15:02:47;9.20;97.50
4187;DHT22;2107;52.306;10.484;2024-02-23T15:05:16;9.10;96.90
4187;DHT22;2107;52.306;10.484;2024-02-23T15:07:43;9.10;97.00
4187;DHT22;2107;52.306;10.484;2024-02-23T15:10:10;9.00;97.30
4187;DHT22;2107;52.306;10.484;2024-02-23T15:12:38;9.00;97.90
4187;DHT22;2107;52.306;10.484;2024-02-23T15:15:06;8.90;97.10
4187;DHT22;2107;52.306;10.484;2024-02-23T15:17:33;8.90;97.10
4187;DHT22;2107;52.306;10.484;2024-02-23T15:20:00;8.90;97.10
4187;DHT22;2107;52.306;10.484;2024-02-23T15:22:27;8.90;97.00
4187;DHT22;2107;52.306;10.484;2024-02-23T15:24:54;8.90;96.90
4187;DHT22;2107;52.306;10.484;2024-02-23T15:27:24;8.90;97.40
4187;DHT22;2107;52.306;10.484;2024-02-23T15:29:54;8.90;97.10
4187;DHT22;2107;52.306;10.484;2024-02-23T15:32:21;8.90;97.20
4187;DHT22;2107;52.306;10.484;2024-02-23T15:34:48;8.90;97.60
4187;DHT22;2107;52.306;10.484;2024-02-23T15:37:15;8.90;98.00
4187;DHT22;2107;52.306;10.484;2024-02-23T15:39:42;8.80;98.40
4187;DHT22;2107;52.306;10.484;2024-02-23T15:42:09;8.80;99.00
4187;DHT22;2107;52.306;10.484;2024-02-23T15:44:38;8.80;98.30
4187;DHT22;2107;52.306;10.484;2024-02-23T15:47:07;8.80;98.70
4187;DHT22;2107;52.306;10.484;2024-02-23T15:49:37;8.80;98.80
4187;DHT22;2107;52.306;10.484;2024-02-23T15:52:05;8.80;98.10
4187;DHT22;2107;52.306;10.484;2024-02-23T15:54:32;8.80;98.50
4187;DHT22;2107;52.306;10.484;2024-02-23T15:56:59;8.70;98.40
4187;DHT22;2107;52.306;10.484;2024-02-23T15:59:27;8.70;98.50
4187;DHT22;2107;52.306;10.484;2024-02-23T16:01:55;8.70;98.70